Accueil
METAR-TAF:

METAR-TAF

Aéroports :

Aéroport de Shoreham

Brighton, Angleterre

latitude: 50-50N, longitude: 000-17W, altitude: 2 m

Observation

Le bulletin a été fait il y a 12 heures et 12 minutes, à 19:50 UTC
Vent 6 kt de nord/nord-est
Température 7°C
Humidité 87%
Pression 1026 hPa
Visibilité 10 km ou plus
Nuages fragmentés à une hauteur de 1800 ft

METAR: EGKA 231950Z 02006KT 9999 BKN018 07/05 Q1026

Heure: 08:02 (08:02 UTC)

Prévision

Le bulletin a été fait il y a 15 heures et 5 minutes, à 16:57 UTC
Prévision valable du 23 à 18 UTC au 23 à 20 UTC
Vent 4 kt de direction variable
Visibilité 10 km ou plus
Nuages fragmentés à une hauteur de 1600 ft
Probabilité 30%
du 23 à 18 UTC au 23 à 20 UTC
Visibilité: 8000 m
Nuages fragmentés à une hauteur de 1200 ft

TAF: EGKA 231657Z 2318/2320 VRB04KT 9999 BKN016 PROB30 2318/2320 8000 BKN012

Observations et prévisions météorologiques de plus de 4000 aéroports (messages METAR et TAF).

Les stations disponibles sont représentées par des disques jaunes et rouges sur la carte.

Passer la souris dessus pour voir le nom de la station.

Cliquer dessus pour voir les observations et prévisions météorologiques.

Pour changer de carte: cliquez sur les boutons verts avec une croix noire pour zoomer, sur le bouton vert avec un tiret pour effectuer un zoom arrière, ou sur les flèches vertes pour les cartes adjacentes.


METAR-TAF: